»·PEaware :: ENY3400 KPSP-KSFO

ENY3400 :: KPSP-KSFO

FLIGHT INFORMATION

Flight Status: Arrived
Operator: Unknown
More flights by this operator :: More flights under this callsign
Pilot: Chris O. (30024)
Aircraft: EMBRAER EMB-170/175
(E170)
More flights by this aircraft type
Origin: KPSP Palm Springs Intl
United States
Destination: KSFO San Francisco Intl
United States
More flights between these airports :: More routes between these airports
Route: +PSP V386 PMD AVE MAKRS SERFR SERFR4
File this flight plan on PilotEdge
Remarks: RMK / SIMBRIEF
Altitude:
(Current/Filed)
32,000ft
Speed:
(Current/Filed)
363kts
Departed: 23-Nov-20 08:58 AM
Arrived: 23-Nov-20 10:11 AM
Distance/Time
Traveled:
365nm/1:13
Distance/Time
To Go:
Arrived

Flight Plot

Page will automatically refresh every two minutes.

Flight plan parsing failed; only flown route is shown


Map Options




Map Legend


Flown Route
Filed Route
Departure Airport
Arrival Airport
Navaid (VOR, NDB)
Fix

Horizontal Profiles

Position Reports

Time Latitude Longitude Heading Altitude Ground
Speed
23-Nov-20 08:38 33.820909 -116.507227 1 410ft 0kts
23-Nov-20 08:39 33.820909 -116.507227 1 410ft 0kts
23-Nov-20 08:40 33.820909 -116.507227 1 410ft 0kts
23-Nov-20 08:41 33.820909 -116.507227 1 410ft 0kts
23-Nov-20 08:42 33.820909 -116.507227 1 410ft 0kts
23-Nov-20 08:43 33.820909 -116.507227 1 410ft 0kts
23-Nov-20 08:44 33.820909 -116.507227 1 410ft 0kts
23-Nov-20 08:45 33.820909 -116.507227 1 410ft 0kts
23-Nov-20 08:46 33.820909 -116.507227 1 410ft 0kts
23-Nov-20 08:47 33.820909 -116.507227 1 410ft 0kts
23-Nov-20 08:48 33.820909 -116.507227 1 410ft 0kts
23-Nov-20 08:49 33.820835 -116.507231 1 410ft 2kts
23-Nov-20 08:50 33.820235 -116.507255 4 409ft 1kts
23-Nov-20 08:51 33.820216 -116.507603 138 410ft 0kts
23-Nov-20 08:52 33.820215 -116.507603 138 410ft 0kts
23-Nov-20 08:53 33.819693 -116.505673 84 407ft 9kts
23-Nov-20 08:54 33.819715 -116.500928 112 403ft 13kts
23-Nov-20 08:55 33.818542 -116.499067 90 399ft 0kts
23-Nov-20 08:56 33.818606 -116.498389 64 398ft 10kts
23-Nov-20 08:57 33.830309 -116.508248 323 500ft 174kts
23-Nov-20 08:58 33.881977 -116.516222 30 3890ft 220kts
23-Nov-20 08:59 33.915568 -116.449229 51 6906ft 258kts
23-Nov-20 09:00 33.978116 -116.423050 344 6986ft 249kts
23-Nov-20 09:01 34.042286 -116.461048 321 9382ft 279kts
23-Nov-20 09:02 34.109828 -116.521635 328 12900ft 344kts
23-Nov-20 09:03 34.203887 -116.557547 341 16349ft 366kts
23-Nov-20 09:04 34.304706 -116.587485 341 19788ft 386kts
23-Nov-20 09:05 34.409796 -116.623200 336 22830ft 399kts
23-Nov-20 09:06 34.507362 -116.675604 317 22910ft 376kts
23-Nov-20 09:07 34.539311 -116.781598 271 25382ft 356kts
23-Nov-20 09:08 34.548786 -116.903533 271 28815ft 371kts
23-Nov-20 09:09 34.561747 -117.027037 272 31865ft 373kts
23-Nov-20 09:10 34.574605 -117.150967 272 31970ft 371kts
23-Nov-20 09:11 34.586816 -117.275551 272 31969ft 371kts
23-Nov-20 09:12 34.598969 -117.399733 272 31967ft 372kts
23-Nov-20 09:13 34.611431 -117.524275 272 31965ft 372kts
23-Nov-20 09:15 34.623926 -117.648777 272 31962ft 372kts
23-Nov-20 09:16 34.636289 -117.773261 271 31965ft 371kts
23-Nov-20 09:17 34.638759 -117.900082 267 31962ft 384kts
23-Nov-20 09:18 34.636271 -118.028711 257 31990ft 378kts
23-Nov-20 09:19 34.679180 -118.145057 311 31995ft 426kts
23-Nov-20 09:20 34.767421 -118.238825 307 31968ft 420kts
23-Nov-20 09:21 34.849340 -118.339949 302 31979ft 415kts
23-Nov-20 09:22 34.918634 -118.450424 297 32017ft 409kts
23-Nov-20 09:23 34.983048 -118.564761 302 32057ft 415kts
23-Nov-20 09:24 35.053643 -118.677079 298 32049ft 415kts
23-Nov-20 09:25 35.114148 -118.796400 297 32066ft 414kts
23-Nov-20 09:26 35.171418 -118.916195 297 32081ft 403kts
23-Nov-20 09:27 35.221516 -119.039694 297 32085ft 413kts
23-Nov-20 09:28 35.269254 -119.167571 298 32082ft 413kts
23-Nov-20 09:29 35.322740 -119.291978 300 32081ft 413kts
23-Nov-20 09:29 35.368260 -119.394853 302 32083ft 412kts
23-Nov-20 09:31 35.435248 -119.536459 303 32080ft 411kts
23-Nov-20 09:32 35.492612 -119.657590 302 32079ft 410kts
23-Nov-20 09:33 35.549969 -119.778382 302 32095ft 409kts
23-Nov-20 09:33 35.597689 -119.879224 302 32101ft 411kts
23-Nov-20 09:35 35.655101 -120.025155 278 32139ft 422kts
23-Nov-20 09:36 35.662267 -120.169298 277 32088ft 422kts
23-Nov-20 09:36 35.669571 -120.288559 286 32083ft 416kts
23-Nov-20 09:38 35.713164 -120.445000 293 32082ft 414kts
23-Nov-20 09:38 35.745059 -120.556285 293 32065ft 415kts
23-Nov-20 09:39 35.787116 -120.683700 297 30994ft 397kts
23-Nov-20 09:40 35.833759 -120.805787 297 29909ft 391kts
23-Nov-20 09:41 35.880032 -120.925400 298 28486ft 381kts
23-Nov-20 09:42 35.924241 -121.041440 298 27103ft 366kts
23-Nov-20 09:43 35.965712 -121.152543 308 25702ft 344kts
23-Nov-20 09:44 36.015287 -121.251155 308 24281ft 335kts
23-Nov-20 09:45 36.064112 -121.347786 311 22848ft 327kts
23-Nov-20 09:46 36.134935 -121.411575 328 21505ft 314kts
23-Nov-20 09:47 36.208867 -121.472338 328 20892ft 318kts
23-Nov-20 09:48 36.282388 -121.532285 328 20313ft 317kts
23-Nov-20 09:49 36.355961 -121.591931 328 20113ft 316kts
23-Nov-20 09:50 36.429393 -121.651404 328 20109ft 316kts
23-Nov-20 09:51 36.502923 -121.711201 328 20112ft 316kts
23-Nov-20 09:52 36.576332 -121.770482 328 19136ft 310kts
23-Nov-20 09:53 36.649201 -121.829056 328 19112ft 312kts
23-Nov-20 09:54 36.722691 -121.886505 339 18380ft 313kts
23-Nov-20 09:55 36.807022 -121.904706 348 16503ft 304kts
23-Nov-20 09:56 36.887966 -121.929202 343 15022ft 296kts
23-Nov-20 09:57 36.964499 -121.956328 340 14306ft 271kts
23-Nov-20 09:58 37.032381 -121.983396 340 13103ft 254kts
23-Nov-20 09:59 37.099848 -122.010781 340 11624ft 258kts
23-Nov-20 10:00 37.168594 -122.035907 343 9992ft 259kts
23-Nov-20 10:01 37.237091 -122.060429 343 8143ft 257kts
23-Nov-20 10:02 37.306538 -122.085966 343 6301ft 263kts
23-Nov-20 10:03 37.373082 -122.110758 343 5986ft 247kts
23-Nov-20 10:04 37.432699 -122.133053 343 4880ft 208kts
23-Nov-20 10:05 37.488354 -122.154412 343 3247ft 211kts
23-Nov-20 10:06 37.536040 -122.180765 308 3069ft 185kts
23-Nov-20 10:07 37.558563 -122.239477 297 3087ft 181kts
23-Nov-20 10:08 37.581545 -122.292764 297 2504ft 160kts
23-Nov-20 10:09 37.604376 -122.340324 293 572ft 159kts
23-Nov-20 10:10 37.618996 -122.376850 264 24ft 20kts

Navigation Log

Ident Type
Flight plan parsing failed, navigation log unavailable